createdAt,value
2018-09-29T00:01:22.694Z,5.43
2018-09-29T00:07:17.746Z,4.44
2018-09-29T00:13:12.704Z,4.44
2018-09-29T00:19:07.705Z,4.12
2018-09-29T00:25:02.753Z,5.8
2018-09-29T00:30:57.730Z,5.15
2018-09-29T00:36:52.768Z,9.11
2018-09-29T00:42:47.741Z,3.61
2018-09-29T00:48:42.727Z,6.33
2018-09-29T00:54:37.747Z,3.93
2018-09-29T01:00:32.746Z,6.68
2018-09-29T01:06:27.719Z,5.49
2018-09-29T01:12:22.743Z,6.09
2018-09-29T01:18:17.739Z,11.17
2018-09-29T01:24:12.783Z,6.08
2018-09-29T01:30:07.784Z,3.89
2018-09-29T01:36:02.762Z,7.24
2018-09-29T01:41:57.779Z,4.24
2018-09-29T01:47:52.769Z,3.02
2018-09-29T01:53:47.767Z,7.28
2018-09-29T01:59:42.756Z,10.92
2018-09-29T02:05:37.765Z,6.66
2018-09-29T02:11:32.792Z,6.17
2018-09-29T02:17:27.797Z,5.65
2018-09-29T02:23:22.764Z,5.25
2018-09-29T02:29:17.784Z,4.69
2018-09-29T02:35:12.842Z,4.24
2018-09-29T02:41:07.822Z,8.78
2018-09-29T02:47:02.802Z,6.82
2018-09-29T02:52:57.816Z,3.67
2018-09-29T02:58:52.840Z,6.21
2018-09-29T03:04:47.824Z,5.89
2018-09-29T03:10:42.808Z,4.64
2018-09-29T03:16:37.806Z,4.52
2018-09-29T03:22:32.837Z,6.66
2018-09-29T03:28:27.802Z,5.59
2018-09-29T03:34:22.875Z,3.72
2018-09-29T03:40:17.818Z,5.71
2018-09-29T03:46:12.824Z,8.64
2018-09-29T03:52:07.838Z,12.1
2018-09-29T03:58:02.852Z,7.31
2018-09-29T04:03:57.853Z,5.83
2018-09-29T04:09:52.878Z,12.84
2018-09-29T04:15:47.884Z,6.75
2018-09-29T04:21:42.891Z,6.51
2018-09-29T04:27:37.878Z,3.86
2018-09-29T04:33:32.860Z,6.97
2018-09-29T04:39:27.860Z,4.75
2018-09-29T04:45:22.866Z,6.5
2018-09-29T04:51:17.867Z,7.69
2018-09-29T04:57:12.899Z,4.79
2018-09-29T05:03:07.881Z,5.58
2018-09-29T05:09:02.896Z,7.17
2018-09-29T05:14:57.889Z,5.21
2018-09-29T05:20:52.876Z,7.07
2018-09-29T05:26:47.888Z,15.77
2018-09-29T05:32:42.907Z,5.46
2018-09-29T05:38:37.917Z,16.33
2018-09-29T05:44:32.910Z,23.35
2018-09-29T05:50:27.905Z,11.1
2018-09-29T05:56:22.945Z,9.97
2018-09-29T06:02:17.909Z,7.4
2018-09-29T06:08:12.918Z,14.57
2018-09-29T06:14:07.935Z,11.52
2018-09-29T06:20:02.943Z,8.68
2018-09-29T06:25:57.901Z,12.49
2018-09-29T06:31:52.950Z,11.02
2018-09-29T06:37:47.940Z,15.88
2018-09-29T06:43:42.933Z,14.85
2018-09-29T06:49:37.984Z,15.32
2018-09-29T06:55:32.937Z,16.69
2018-09-29T07:01:27.936Z,11.37
2018-09-29T07:07:22.971Z,11.82
2018-09-29T07:13:17.946Z,14.4
2018-09-29T07:19:12.941Z,10.45
2018-09-29T07:25:07.952Z,13.28
2018-09-29T07:31:02.951Z,13.54
2018-09-29T07:36:57.967Z,13.53
2018-09-29T07:42:52.973Z,13.97
2018-09-29T07:48:47.968Z,16.44
2018-09-29T07:54:43.065Z,25.33
2018-09-29T08:00:37.995Z,27.31
2018-09-29T08:06:33.224Z,20.58
2018-09-29T08:12:28.039Z,23.5
2018-09-29T08:18:22.979Z,17.71
2018-09-29T08:24:18.038Z,19.62
2018-09-29T08:30:13.078Z,15.2
2018-09-29T08:36:08.011Z,16.1
2018-09-29T08:42:03.007Z,11.69
2018-09-29T08:47:57.983Z,12.3
2018-09-29T08:53:52.998Z,10.91
2018-09-29T08:59:48.016Z,10.08
2018-09-29T09:05:42.999Z,5.66
2018-09-29T09:11:38.103Z,4.7
2018-09-29T09:17:33.025Z,4.75
2018-09-29T09:23:28.066Z,2.72
2018-09-29T09:29:23.054Z,5.42
2018-09-29T09:35:18.068Z,4.55
2018-09-29T09:41:13.022Z,6.58
2018-09-29T09:47:08.049Z,4.17
2018-09-29T09:53:03.083Z,5.79
2018-09-29T09:58:58.025Z,3.82
2018-09-29T10:04:53.057Z,3.23
2018-09-29T10:10:48.084Z,2.99
2018-09-29T10:16:43.074Z,4.85
2018-09-29T10:22:38.090Z,8.97
2018-09-29T10:28:33.143Z,4.92
2018-09-29T10:34:28.094Z,5.1
2018-09-29T10:40:23.089Z,4.13
2018-09-29T10:46:18.079Z,3.3
2018-09-29T10:52:13.079Z,4.52
2018-09-29T10:58:08.089Z,3.52
2018-09-29T11:04:03.090Z,3.36
2018-09-29T11:09:58.079Z,3.33
2018-09-29T11:15:53.112Z,5.73
2018-09-29T11:21:48.108Z,4.12
2018-09-29T11:27:43.186Z,3.97
2018-09-29T11:33:38.112Z,2.89
2018-09-29T11:39:33.121Z,5.4
2018-09-29T11:45:28.121Z,3.94
2018-09-29T11:51:23.107Z,7.83
2018-09-29T11:57:18.117Z,4.45
2018-09-29T12:03:13.138Z,6.59
2018-09-29T12:09:08.133Z,3.7
2018-09-29T12:15:03.135Z,3.24
2018-09-29T12:20:58.170Z,4.48
2018-09-29T12:26:53.204Z,2.22
2018-09-29T12:32:48.140Z,7.18
2018-09-29T12:38:43.172Z,11.81
2018-09-29T12:44:38.171Z,4.2
2018-09-29T12:50:33.153Z,3.76
2018-09-29T12:56:28.211Z,3.89
2018-09-29T13:02:23.161Z,7.81
2018-09-29T13:08:18.175Z,2.42
2018-09-29T13:14:13.173Z,4.78
2018-09-29T13:20:08.176Z,3.53
2018-09-29T13:26:03.162Z,9.68
2018-09-29T13:31:58.273Z,4.53
2018-09-29T13:37:53.223Z,5.23
2018-09-29T13:43:48.235Z,3.47
2018-09-29T13:49:43.224Z,3.49
2018-09-29T13:55:38.190Z,8.2
2018-09-29T14:01:33.211Z,6.87
2018-09-29T14:07:28.251Z,5.86
2018-09-29T14:13:23.237Z,5.96
2018-09-29T14:19:18.223Z,3.12
2018-09-29T14:25:13.208Z,7.38
2018-09-29T14:31:08.225Z,12.03
2018-09-29T14:37:03.292Z,6.72
2018-09-29T14:42:58.221Z,6.72
2018-09-29T14:48:53.237Z,14.96
2018-09-29T14:54:48.240Z,5.75
2018-09-29T15:00:43.303Z,5.21
2018-09-29T15:06:38.263Z,5.91
2018-09-29T15:12:33.271Z,6
2018-09-29T15:18:28.254Z,3.97
2018-09-29T15:24:23.296Z,5.84
2018-09-29T15:30:18.263Z,5.62
2018-09-29T15:36:13.291Z,5.06
2018-09-29T15:42:08.309Z,5.31
2018-09-29T15:48:03.262Z,5.65
2018-09-29T15:53:58.339Z,5.73
2018-09-29T15:59:53.282Z,10.17
2018-09-29T16:05:48.290Z,5.09
2018-09-29T16:11:43.312Z,6.59
2018-09-29T16:17:38.326Z,5.64
2018-09-29T16:23:33.309Z,5.93
2018-09-29T16:29:28.364Z,6.19
2018-09-29T16:35:23.307Z,6.51
2018-09-29T16:41:18.315Z,4.35
2018-09-29T16:47:13.334Z,7.34
2018-09-29T16:53:08.316Z,6.46
2018-09-29T16:59:03.331Z,6.47
2018-09-29T17:04:58.320Z,7.04
2018-09-29T17:10:53.386Z,9.66
2018-09-29T17:16:48.332Z,4.86
2018-09-29T17:22:43.345Z,8.88
2018-09-29T17:28:38.343Z,7.26
2018-09-29T17:34:33.329Z,10.16
2018-09-29T17:40:28.357Z,6.09
2018-09-29T17:46:23.359Z,12.14
2018-09-29T17:52:18.365Z,7.42
2018-09-29T17:58:13.339Z,7
2018-09-29T18:04:08.487Z,7.58
2018-09-29T18:10:03.388Z,9.4
2018-09-29T18:15:58.373Z,9.25
2018-09-29T18:21:53.421Z,7.45
2018-09-29T18:27:48.364Z,6.2
2018-09-29T18:33:43.392Z,8.71
2018-09-29T18:39:38.387Z,7.4
2018-09-29T18:45:33.416Z,11.56
2018-09-29T18:51:28.383Z,7.76
2018-09-29T18:57:23.503Z,5.99
2018-09-29T19:03:18.393Z,12.26
2018-09-29T19:09:13.406Z,5.9
2018-09-29T19:15:08.413Z,6.72
2018-09-29T19:21:03.400Z,9.66
2018-09-29T19:26:58.422Z,6.7
2018-09-29T19:32:53.443Z,4.89
2018-09-29T19:38:48.419Z,8.29
2018-09-29T19:44:43.421Z,4.64
2018-09-29T19:50:38.425Z,5.42
2018-09-29T19:56:33.458Z,4.94
2018-09-29T20:02:28.424Z,7.76
2018-09-29T20:08:23.451Z,6.08
2018-09-29T20:14:18.466Z,7.7
2018-09-29T20:20:13.452Z,7.18
2018-09-29T20:26:08.487Z,4.9
2018-09-29T20:32:03.456Z,5.23
2018-09-29T20:37:58.487Z,7.5
2018-09-29T20:43:53.477Z,12.77
2018-09-29T20:49:48.454Z,6.66
2018-09-29T20:55:43.530Z,7.57
2018-09-29T21:01:38.466Z,9.71
2018-09-29T21:07:33.479Z,8.67
2018-09-29T21:13:28.636Z,9.88
2018-09-29T21:19:23.528Z,30.33
2018-09-29T21:25:18.524Z,23.42
2018-09-29T21:31:13.491Z,6.5
2018-09-29T21:37:08.502Z,7.24
2018-09-29T21:43:03.491Z,15.54
2018-09-29T21:48:58.505Z,7.99
2018-09-29T21:54:53.502Z,18.19
2018-09-29T22:00:48.516Z,15.28
2018-09-29T22:06:43.569Z,15.37
2018-09-29T22:12:38.505Z,9.06
2018-09-29T22:18:33.519Z,7.34
2018-09-29T22:24:28.557Z,7
2018-09-29T22:30:23.545Z,8.41
2018-09-29T22:36:18.530Z,10.27
2018-09-29T22:42:13.564Z,8.59
2018-09-29T22:48:08.523Z,10.53
2018-09-29T22:54:03.547Z,7.24
2018-09-29T22:59:58.566Z,9.94
2018-09-29T23:05:53.538Z,11
2018-09-29T23:11:48.596Z,13.04
2018-09-29T23:17:43.553Z,6.9
2018-09-29T23:23:38.582Z,7.88
2018-09-29T23:29:33.641Z,7.6
2018-09-29T23:35:28.603Z,9.58
2018-09-29T23:41:23.558Z,7.53
2018-09-29T23:47:18.564Z,8.56
2018-09-29T23:53:13.575Z,8.7
2018-09-29T23:59:08.602Z,14.07
